Estación Meteorológica Peña el Pijo (Robertgarden) [ 11/20/18 01:00:55 CET ]

Fecha Hora Presion(HPa) Temp (°C) Humedad % Rocio (°C) Viento ( m/s) Direccion Lluvia 1Hora(mm) Lluvia 24H(mm) LLuvia Total(mm)
2018-Jan-27 01:01:56 1012.300 3.1 65 -2.9         62.16
2018-Jan-27 02:06:08 1012.500 2.8 64 -3.3         62.16
2018-Jan-27 03:03:09 1012.200 2.5 64 -3.6 1.1 NNE     62.16
2018-Jan-27 04:01:32 1011.600 2.2 64 -4.0         62.16
2018-Jan-27 05:01:54 1011.300 1.3 65 -4.6         62.16
2018-Jan-27 06:01:51 1011.500 1.6 66 -4.1         62.16
2018-Jan-27 07:01:35 1012.000 1.4 67 -4.1         62.16
2018-Jan-27 08:01:42 1012.300 1.3 68 -4.0         62.16
2018-Jan-27 09:01:35 1012.800 1.4 68 -3.9         62.16
2018-Jan-27 10:01:46 1013.100 2.1 68 -3.2         62.16
2018-Jan-27 11:01:42 1013.500 3.3 67 -2.3         62.16
2018-Jan-27 12:01:46 1013.500 5.9 55 -2.5 1.6 ENE     62.16
2018-Jan-27 13:01:40 1012.700 6.8 51 -2.6         62.16
2018-Jan-27 14:01:40 1012.400 7.8 47 -2.9         62.16
2018-Jan-27 15:01:46 1011.900 8.9 43 -3.1         62.16
2018-Jan-27 16:01:46 1012.500 7.5 45 -3.8 2.5 NE     62.16
2018-Jan-27 17:01:41 1012.800 6.3 47 -4.2         62.16
2018-Jan-27 18:02:02 1013.100 5.3 50 -4.3         62.16
2018-Jan-27 19:01:47 1013.600 4.9 52 -4.2         62.16
2018-Jan-27 20:01:59 1014.100 4.5 55 -3.8         62.16
2018-Jan-27 21:01:45 1015.000 4.1 54 -4.4 1.1 NE     62.16
2018-Jan-27 22:01:46 1014.900 3.4 62 -3.2 2.7 NE     62.16
2018-Jan-27 23:01:51 1015.100 3.1 64 -3.1 2.1 NE     62.16

Temperatura Máxima:    Temperatura Mínima:
Presión Máxima:1015.100 Hpa    Presión Mínima:1011.300 Hpa


Volver